createdAt,value
2022-12-09T00:01:11.449Z,0.00
2022-12-09T00:03:41.048Z,0.00
2022-12-09T00:06:10.408Z,0.00
2022-12-09T00:08:39.740Z,0.00
2022-12-09T00:11:08.858Z,0.00
2022-12-09T00:13:38.582Z,-0.10
2022-12-09T00:16:08.112Z,-0.10
2022-12-09T00:18:37.227Z,-0.10
2022-12-09T00:21:16.876Z,-0.10
2022-12-09T00:23:45.143Z,-0.10
2022-12-09T00:26:13.589Z,-0.10
2022-12-09T00:28:43.782Z,-0.10
2022-12-09T00:31:15.172Z,-0.10
2022-12-09T00:33:43.469Z,-0.10
2022-12-09T00:36:15.012Z,-0.10
2022-12-09T00:38:43.972Z,-0.10
2022-12-09T00:41:12.763Z,-0.10
2022-12-09T00:43:40.904Z,-0.10
2022-12-09T00:46:11.205Z,-0.10
2022-12-09T00:48:40.672Z,-0.10
2022-12-09T00:51:11.681Z,-0.20
2022-12-09T00:53:40.709Z,-0.20
2022-12-09T00:56:09.074Z,-0.20
2022-12-09T00:58:37.691Z,-0.20
2022-12-09T01:01:06.467Z,-0.20
2022-12-09T01:03:36.221Z,-0.20
2022-12-09T01:06:10.424Z,-0.20
2022-12-09T01:08:40.200Z,-0.30
2022-12-09T01:11:13.419Z,-0.20
2022-12-09T01:13:41.928Z,-0.30
2022-12-09T01:16:17.353Z,-0.30
2022-12-09T01:18:48.259Z,-0.20
2022-12-09T01:21:16.711Z,-0.20
2022-12-09T01:23:45.412Z,-0.20
2022-12-09T01:26:13.491Z,-0.20
2022-12-09T01:28:42.011Z,-0.20
2022-12-09T01:31:13.149Z,-0.20
2022-12-09T01:33:41.482Z,-0.20
2022-12-09T01:36:15.352Z,-0.20
2022-12-09T01:38:43.827Z,-0.20
2022-12-09T01:41:12.185Z,-0.20
2022-12-09T01:43:41.399Z,-0.20
2022-12-09T01:46:10.038Z,-0.20
2022-12-09T01:48:41.548Z,-0.20
2022-12-09T01:51:13.922Z,-0.20
2022-12-09T01:53:47.097Z,-0.20
2022-12-09T01:56:21.237Z,-0.20
2022-12-09T01:58:50.333Z,-0.20
2022-12-09T02:01:19.499Z,-0.20
2022-12-09T02:03:48.597Z,-0.10
2022-12-09T02:06:19.063Z,-0.10
2022-12-09T02:08:48.909Z,-0.10
2022-12-09T02:11:27.186Z,-0.10
2022-12-09T02:14:02.059Z,-0.10
2022-12-09T02:16:37.248Z,0.00
2022-12-09T02:19:22.665Z,0.00
2022-12-09T02:21:56.530Z,0.00
2022-12-09T02:24:34.922Z,0.00
2022-12-09T02:27:12.068Z,0.10
2022-12-09T02:30:08.929Z,0.10
2022-12-09T02:33:05.114Z,0.10
2022-12-09T02:35:40.608Z,0.20
2022-12-09T02:42:27.159Z,0.10
2022-12-09T02:44:57.758Z,0.20
2022-12-09T02:47:29.746Z,0.20
2022-12-09T02:50:02.902Z,0.10
2022-12-09T02:52:35.072Z,0.20
2022-12-09T02:55:07.153Z,0.10
2022-12-09T02:57:38.447Z,0.20
2022-12-09T03:00:10.282Z,0.20
2022-12-09T03:02:43.779Z,0.20
2022-12-09T03:05:19.672Z,0.20
2022-12-09T03:07:56.945Z,0.30
2022-12-09T03:10:29.910Z,0.20
2022-12-09T03:13:03.834Z,0.30
2022-12-09T03:15:36.660Z,0.30
2022-12-09T03:18:10.865Z,0.30
2022-12-09T03:20:42.876Z,0.30
2022-12-09T03:23:16.669Z,0.30
2022-12-09T03:25:48.005Z,0.30
2022-12-09T03:28:21.407Z,0.40
2022-12-09T03:30:50.577Z,0.30
2022-12-09T03:33:22.048Z,0.40
2022-12-09T03:35:53.762Z,0.50
2022-12-09T03:38:25.489Z,0.50
2022-12-09T03:40:59.997Z,0.40
2022-12-09T03:43:32.594Z,0.40
2022-12-09T03:46:01.612Z,0.50
2022-12-09T03:48:30.475Z,0.50
2022-12-09T03:51:05.159Z,0.50
2022-12-09T03:53:41.490Z,0.50
2022-12-09T03:56:16.678Z,0.50
2022-12-09T03:58:48.162Z,0.50
2022-12-09T04:01:17.392Z,0.50
2022-12-09T04:03:48.879Z,0.50
2022-12-09T04:06:17.246Z,0.40
2022-12-09T04:08:47.291Z,0.50
2022-12-09T04:11:15.975Z,0.50
2022-12-09T04:13:45.516Z,0.50
2022-12-09T04:16:14.046Z,0.40
2022-12-09T04:18:42.562Z,0.50
2022-12-09T04:21:13.097Z,0.50
2022-12-09T04:23:43.484Z,0.50
2022-12-09T04:26:17.684Z,0.50
2022-12-09T04:28:46.085Z,0.50
2022-12-09T04:31:15.726Z,0.50
2022-12-09T04:33:44.494Z,0.50
2022-12-09T04:36:16.108Z,0.60
2022-12-09T04:38:45.615Z,0.60
2022-12-09T04:41:16.220Z,0.60
2022-12-09T04:43:44.710Z,0.60
2022-12-09T04:46:14.741Z,0.60
2022-12-09T04:48:43.783Z,0.50
2022-12-09T04:51:13.184Z,0.50
2022-12-09T04:53:42.677Z,0.60
2022-12-09T04:56:16.621Z,0.60
2022-12-09T04:58:45.198Z,0.60
2022-12-09T05:01:18.186Z,0.60
2022-12-09T05:03:50.026Z,0.60
2022-12-09T05:06:19.782Z,0.50
2022-12-09T05:08:49.135Z,0.60
2022-12-09T05:11:20.821Z,0.60
2022-12-09T05:13:49.224Z,0.60
2022-12-09T05:16:19.845Z,0.60
2022-12-09T05:18:49.898Z,0.60
2022-12-09T05:21:21.045Z,0.60
2022-12-09T05:23:49.932Z,0.60
2022-12-09T05:26:22.285Z,0.60
2022-12-09T05:28:51.064Z,0.60
2022-12-09T05:31:21.358Z,0.60
2022-12-09T05:33:51.737Z,0.60
2022-12-09T05:36:24.298Z,0.60
2022-12-09T05:38:53.538Z,0.50
2022-12-09T05:41:24.414Z,0.50
2022-12-09T05:43:54.105Z,0.50
2022-12-09T05:46:23.508Z,0.50
2022-12-09T05:48:51.869Z,0.60
2022-12-09T05:51:25.674Z,0.60
2022-12-09T05:53:55.016Z,0.60
2022-12-09T05:56:26.051Z,0.60
2022-12-09T05:58:56.489Z,0.50
2022-12-09T06:01:25.956Z,0.60
2022-12-09T06:03:55.731Z,0.50
2022-12-09T06:06:28.033Z,0.50
2022-12-09T06:08:59.730Z,0.50
2022-12-09T06:11:29.514Z,0.50
2022-12-09T06:13:58.346Z,0.50
2022-12-09T06:16:27.334Z,0.50
2022-12-09T06:18:56.174Z,0.50
2022-12-09T06:21:24.667Z,0.50
2022-12-09T06:23:53.640Z,0.50
2022-12-09T06:26:24.017Z,0.50
2022-12-09T06:28:54.897Z,0.50
2022-12-09T06:31:23.984Z,0.50
2022-12-09T06:33:55.295Z,0.50
2022-12-09T06:36:25.046Z,0.50
2022-12-09T06:38:54.041Z,0.50
2022-12-09T06:41:22.575Z,0.60
2022-12-09T06:43:51.364Z,0.60
2022-12-09T06:46:23.496Z,0.60
2022-12-09T06:48:52.905Z,0.60
2022-12-09T06:51:22.258Z,0.60
2022-12-09T06:53:50.797Z,0.60
2022-12-09T06:56:19.649Z,0.60
2022-12-09T06:58:48.602Z,0.70
2022-12-09T07:01:22.761Z,0.70
2022-12-09T07:03:53.335Z,0.70
2022-12-09T07:06:28.608Z,0.70
2022-12-09T07:08:59.056Z,0.70
2022-12-09T07:11:27.486Z,0.70
2022-12-09T07:13:55.720Z,0.60
2022-12-09T07:16:25.858Z,0.70
2022-12-09T07:18:54.594Z,0.80
2022-12-09T07:21:24.193Z,0.80
2022-12-09T07:23:53.979Z,0.80
2022-12-09T07:26:23.702Z,0.90
2022-12-09T07:28:51.957Z,0.80
2022-12-09T07:31:22.970Z,0.90
2022-12-09T07:33:56.582Z,0.90
2022-12-09T07:36:31.594Z,0.90
2022-12-09T07:39:02.568Z,1.00
2022-12-09T07:41:31.150Z,0.90
2022-12-09T07:43:59.803Z,0.90
2022-12-09T07:46:28.736Z,0.90
2022-12-09T07:48:59.522Z,1.00
2022-12-09T07:51:29.746Z,1.10
2022-12-09T07:53:58.705Z,1.00
2022-12-09T07:56:28.578Z,1.10
2022-12-09T07:58:58.166Z,1.20
2022-12-09T08:01:28.503Z,1.20
2022-12-09T08:04:00.463Z,1.20
2022-12-09T08:06:30.601Z,1.20
2022-12-09T08:09:00.587Z,1.20
2022-12-09T08:11:31.235Z,1.20
2022-12-09T08:14:07.205Z,1.30
2022-12-09T08:16:39.327Z,1.30
2022-12-09T08:19:09.410Z,1.30
2022-12-09T08:21:39.188Z,1.30
2022-12-09T08:24:08.800Z,1.30
2022-12-09T08:26:39.308Z,1.30
2022-12-09T08:29:09.792Z,1.40
2022-12-09T08:31:41.565Z,1.40
2022-12-09T08:34:12.225Z,1.40
2022-12-09T08:36:40.838Z,1.40
2022-12-09T08:39:10.111Z,1.50
2022-12-09T08:41:39.894Z,1.50
2022-12-09T08:44:10.593Z,1.50
2022-12-09T08:46:41.171Z,1.50
2022-12-09T08:49:11.997Z,1.50
2022-12-09T08:51:41.392Z,1.60
2022-12-09T08:54:09.878Z,1.60
2022-12-09T08:56:38.711Z,1.60
2022-12-09T08:59:07.590Z,1.50
2022-12-09T09:01:36.447Z,1.60
2022-12-09T09:04:07.586Z,1.60
2022-12-09T09:06:39.468Z,1.60
2022-12-09T09:09:10.136Z,1.70
2022-12-09T09:11:41.259Z,1.70
2022-12-09T09:14:11.698Z,1.80
2022-12-09T09:16:41.865Z,1.80
2022-12-09T09:19:17.574Z,1.90
2022-12-09T09:21:47.336Z,1.90
2022-12-09T09:24:19.904Z,1.90
2022-12-09T09:26:50.974Z,2.00
2022-12-09T09:29:22.144Z,2.00
2022-12-09T09:31:54.702Z,2.10
2022-12-09T09:34:24.071Z,2.10
2022-12-09T09:36:54.837Z,2.10
2022-12-09T09:39:23.991Z,2.10
2022-12-09T09:41:55.312Z,2.20
2022-12-09T09:47:20.795Z,2.20
2022-12-09T09:49:55.456Z,2.20
2022-12-09T09:52:27.681Z,2.20
2022-12-09T09:54:57.123Z,2.20
2022-12-09T09:57:31.317Z,2.20
2022-12-09T10:00:10.077Z,2.20
2022-12-09T10:02:58.292Z,2.20
2022-12-09T10:05:31.780Z,2.10
2022-12-09T10:11:14.023Z,2.30
2022-12-09T10:13:53.710Z,2.30
2022-12-09T10:16:26.038Z,2.30
2022-12-09T10:19:08.079Z,2.30
2022-12-09T10:21:43.334Z,2.30
2022-12-09T10:24:22.173Z,2.40
2022-12-09T10:27:01.410Z,2.40
2022-12-09T10:29:44.033Z,2.40
2022-12-09T10:32:17.960Z,2.50
2022-12-09T10:34:47.701Z,2.50
2022-12-09T10:37:27.722Z,2.50
2022-12-09T10:40:03.395Z,2.50
2022-12-09T10:42:53.013Z,2.40
2022-12-09T10:45:23.045Z,2.50
2022-12-09T10:47:53.953Z,2.50
2022-12-09T10:50:31.657Z,2.50
2022-12-09T10:53:06.853Z,2.50
2022-12-09T10:55:39.678Z,2.50
2022-12-09T10:58:15.764Z,2.60
2022-12-09T11:00:44.143Z,2.50
2022-12-09T11:03:27.865Z,2.50
2022-12-09T11:06:03.154Z,2.50
2022-12-09T11:08:33.213Z,2.60
2022-12-09T11:11:03.561Z,2.50
2022-12-09T11:13:44.313Z,2.60
2022-12-09T11:16:13.447Z,2.60
2022-12-09T11:18:48.156Z,2.50
2022-12-09T11:21:35.165Z,2.50
2022-12-09T11:24:04.853Z,2.50
2022-12-09T11:26:39.297Z,2.50
2022-12-09T11:29:16.471Z,2.60
2022-12-09T11:31:46.280Z,2.50
2022-12-09T11:34:25.052Z,2.60
2022-12-09T11:36:55.463Z,2.60
2022-12-09T11:39:27.484Z,2.70
2022-12-09T11:42:19.076Z,2.70
2022-12-09T11:44:57.312Z,2.60
2022-12-09T11:47:44.583Z,2.60
2022-12-09T11:50:24.617Z,2.70
2022-12-09T11:53:08.446Z,2.70
2022-12-09T11:55:39.077Z,2.70
2022-12-09T11:58:16.029Z,2.60
2022-12-09T12:00:50.060Z,2.70
2022-12-09T12:03:23.182Z,2.70
2022-12-09T12:05:58.319Z,2.60
2022-12-09T12:08:35.122Z,2.60
2022-12-09T12:11:14.915Z,2.70
2022-12-09T12:13:47.461Z,2.70
2022-12-09T12:16:22.649Z,2.70
2022-12-09T12:18:55.998Z,2.70
2022-12-09T12:21:42.678Z,2.70
2022-12-09T12:24:38.672Z,2.70
2022-12-09T12:27:24.593Z,2.70
2022-12-09T12:30:00.736Z,2.70
2022-12-09T12:32:40.499Z,2.70
2022-12-09T12:35:45.895Z,2.80
2022-12-09T12:38:23.617Z,2.80
2022-12-09T12:41:00.374Z,2.70
2022-12-09T12:44:01.878Z,2.80
2022-12-09T12:46:44.739Z,2.80
2022-12-09T12:49:26.894Z,2.80
2022-12-09T12:52:04.018Z,2.80
2022-12-09T12:54:42.984Z,2.90
2022-12-09T12:57:20.311Z,2.80
2022-12-09T12:59:58.191Z,2.90
2022-12-09T13:02:40.033Z,2.90
2022-12-09T13:05:17.608Z,2.90
2022-12-09T13:07:53.610Z,2.90
2022-12-09T13:10:30.697Z,3.00
2022-12-09T13:13:01.564Z,3.00
2022-12-09T13:15:37.299Z,2.90
2022-12-09T13:18:14.142Z,2.90
2022-12-09T13:20:48.008Z,3.00
2022-12-09T13:23:31.988Z,2.90
2022-12-09T13:26:12.509Z,2.90
2022-12-09T13:28:49.995Z,2.90
2022-12-09T13:31:22.171Z,2.90
2022-12-09T13:34:00.599Z,2.90
2022-12-09T13:36:37.440Z,2.90
2022-12-09T13:39:05.939Z,2.80
2022-12-09T13:41:53.252Z,2.90
2022-12-09T13:44:21.367Z,2.90
2022-12-09T13:46:49.582Z,2.80
2022-12-09T13:49:22.534Z,2.80
2022-12-09T13:51:53.191Z,2.80
2022-12-09T13:54:24.017Z,2.80
2022-12-09T13:57:15.402Z,2.80
2022-12-09T13:59:45.750Z,2.80
2022-12-09T14:02:23.479Z,2.80
2022-12-09T14:05:01.554Z,2.80
2022-12-09T14:07:35.613Z,2.80
2022-12-09T14:10:04.808Z,2.70
2022-12-09T14:13:05.581Z,2.70
2022-12-09T14:15:41.091Z,2.70
2022-12-09T14:18:30.821Z,2.70
2022-12-09T14:21:27.270Z,2.70
2022-12-09T14:24:33.023Z,2.70
2022-12-09T14:27:13.601Z,2.70
2022-12-09T14:29:53.008Z,2.70
2022-12-09T14:32:30.295Z,2.70
2022-12-09T14:35:17.119Z,2.60
2022-12-09T14:38:11.049Z,2.60
2022-12-09T14:40:52.711Z,2.60
2022-12-09T14:43:54.484Z,2.60
2022-12-09T14:46:27.286Z,2.60
2022-12-09T14:48:58.039Z,2.60
2022-12-09T14:51:31.065Z,2.60
2022-12-09T14:54:04.937Z,2.60
2022-12-09T14:56:34.451Z,2.50
2022-12-09T14:59:06.397Z,2.50
2022-12-09T15:01:52.662Z,2.50
2022-12-09T15:04:31.164Z,2.50
2022-12-09T15:07:14.234Z,2.40
2022-12-09T15:09:55.022Z,2.40
2022-12-09T15:12:28.218Z,2.40
2022-12-09T15:14:59.668Z,2.40
2022-12-09T15:17:31.632Z,2.40
2022-12-09T15:20:01.311Z,2.40
2022-12-09T15:22:33.011Z,2.40
2022-12-09T15:25:04.439Z,2.40
2022-12-09T15:27:32.700Z,2.40
2022-12-09T15:30:00.849Z,2.30
2022-12-09T15:32:31.155Z,2.30
2022-12-09T15:35:17.894Z,2.30
2022-12-09T15:37:47.332Z,2.30
2022-12-09T15:40:22.418Z,2.30
2022-12-09T15:42:53.697Z,2.30
2022-12-09T15:45:25.194Z,2.20
2022-12-09T15:47:57.805Z,2.20
2022-12-09T15:50:30.097Z,2.20
2022-12-09T15:53:04.126Z,2.20
2022-12-09T15:55:39.514Z,2.30
2022-12-09T15:58:10.672Z,2.20
2022-12-09T16:00:43.113Z,2.20
2022-12-09T16:03:11.407Z,2.20
2022-12-09T16:05:42.023Z,2.20
2022-12-09T16:08:11.454Z,2.20
2022-12-09T16:10:49.574Z,2.20
2022-12-09T16:13:21.163Z,2.20
2022-12-09T16:15:52.785Z,2.20
2022-12-09T16:18:24.432Z,2.20
2022-12-09T16:21:01.371Z,2.20
2022-12-09T16:23:29.909Z,2.20
2022-12-09T16:26:07.353Z,2.20
2022-12-09T16:28:36.378Z,2.10
2022-12-09T16:31:18.629Z,2.10
2022-12-09T16:33:49.710Z,2.10
2022-12-09T16:36:21.156Z,2.10
2022-12-09T16:39:32.815Z,2.10
2022-12-09T16:42:03.352Z,2.10
2022-12-09T16:44:35.332Z,2.10
2022-12-09T16:47:16.061Z,2.10
2022-12-09T16:49:47.272Z,2.10
2022-12-09T16:52:18.554Z,2.10
2022-12-09T16:54:49.119Z,2.10
2022-12-09T16:57:20.144Z,2.10
2022-12-09T16:59:48.603Z,2.10
2022-12-09T17:02:22.548Z,2.10
2022-12-09T17:04:52.149Z,2.10
2022-12-09T17:07:20.286Z,2.00
2022-12-09T17:09:48.460Z,2.10
2022-12-09T17:12:17.915Z,2.10
2022-12-09T17:14:46.045Z,2.10
2022-12-09T17:17:14.100Z,2.10
2022-12-09T17:19:43.069Z,2.00
2022-12-09T17:22:11.929Z,2.10
2022-12-09T17:24:40.970Z,2.10
2022-12-09T17:27:09.513Z,2.10
2022-12-09T17:29:39.629Z,2.10
2022-12-09T17:32:10.575Z,2.10
2022-12-09T17:34:38.921Z,2.10
2022-12-09T17:37:07.149Z,2.10
2022-12-09T17:39:35.789Z,2.10
2022-12-09T17:42:04.311Z,2.10
2022-12-09T17:44:32.688Z,2.10
2022-12-09T17:47:02.058Z,2.10
2022-12-09T17:49:30.352Z,2.10
2022-12-09T17:51:58.479Z,2.10
2022-12-09T17:54:26.519Z,2.10
2022-12-09T17:56:54.559Z,2.10
2022-12-09T17:59:22.588Z,2.00
2022-12-09T18:01:50.626Z,2.10
2022-12-09T18:04:20.787Z,2.10
2022-12-09T18:06:49.267Z,2.10
2022-12-09T18:09:18.938Z,2.10
2022-12-09T18:11:48.126Z,2.10
2022-12-09T18:14:17.056Z,2.00
2022-12-09T18:16:46.383Z,2.00
2022-12-09T18:19:16.990Z,2.10
2022-12-09T18:21:46.754Z,2.10
2022-12-09T18:24:15.526Z,2.10
2022-12-09T18:26:43.716Z,2.10
2022-12-09T18:29:12.107Z,2.10
2022-12-09T18:31:40.802Z,2.10
2022-12-09T18:34:08.767Z,2.00
2022-12-09T18:36:36.985Z,2.00
2022-12-09T18:39:06.709Z,2.10
2022-12-09T18:41:36.066Z,2.10
2022-12-09T18:44:06.637Z,2.10
2022-12-09T18:46:37.249Z,2.10
2022-12-09T18:49:07.312Z,2.10
2022-12-09T18:51:36.178Z,2.10
2022-12-09T18:54:08.158Z,2.10
2022-12-09T18:56:37.760Z,2.10
2022-12-09T18:59:07.404Z,2.10
2022-12-09T19:01:39.390Z,2.10
2022-12-09T19:04:11.745Z,2.10
2022-12-09T19:06:41.537Z,2.10
2022-12-09T19:09:12.565Z,2.10
2022-12-09T19:11:41.847Z,2.10
2022-12-09T19:14:11.115Z,2.10
2022-12-09T19:16:39.979Z,2.10
2022-12-09T19:19:10.787Z,2.10
2022-12-09T19:21:40.391Z,2.10
2022-12-09T19:24:13.788Z,2.10
2022-12-09T19:26:42.733Z,2.10
2022-12-09T19:29:11.729Z,2.10
2022-12-09T19:31:41.275Z,2.10
2022-12-09T19:34:13.334Z,2.10
2022-12-09T19:36:42.405Z,2.10
2022-12-09T19:39:13.836Z,2.10
2022-12-09T19:41:42.970Z,2.10
2022-12-09T19:44:21.652Z,2.10
2022-12-09T19:46:54.458Z,2.10
2022-12-09T19:49:24.318Z,2.10
2022-12-09T19:51:53.486Z,2.10
2022-12-09T19:54:28.282Z,2.10
2022-12-09T19:56:56.957Z,2.10
2022-12-09T19:59:25.030Z,2.10
2022-12-09T20:01:53.214Z,2.10
2022-12-09T20:07:12.219Z,2.10
2022-12-09T20:09:41.726Z,2.10
2022-12-09T20:12:09.825Z,2.10
2022-12-09T20:14:37.931Z,2.10
2022-12-09T20:17:06.226Z,2.10
2022-12-09T20:19:35.853Z,2.10
2022-12-09T20:22:04.124Z,2.10
2022-12-09T20:24:32.219Z,2.10
2022-12-09T20:27:02.091Z,2.10
2022-12-09T20:29:36.911Z,2.10
2022-12-09T20:32:06.562Z,2.10
2022-12-09T20:34:34.678Z,2.10
2022-12-09T20:37:03.024Z,2.10
2022-12-09T20:39:31.195Z,2.10
2022-12-09T20:41:59.477Z,2.10
2022-12-09T20:44:29.166Z,2.10
2022-12-09T20:46:57.297Z,2.10
2022-12-09T20:49:28.287Z,2.10
2022-12-09T20:51:57.333Z,2.10
2022-12-09T20:54:25.428Z,2.10
2022-12-09T20:56:54.578Z,2.10
2022-12-09T20:59:22.999Z,2.10
2022-12-09T21:01:54.167Z,2.10
2022-12-09T21:04:22.829Z,2.10
2022-12-09T21:06:50.914Z,2.10
2022-12-09T21:09:22.171Z,2.10
2022-12-09T21:11:51.382Z,2.10
2022-12-09T21:14:20.032Z,2.00
2022-12-09T21:16:50.376Z,2.10
2022-12-09T21:19:24.634Z,2.10
2022-12-09T21:21:53.867Z,2.10
2022-12-09T21:24:23.969Z,2.10
2022-12-09T21:26:55.488Z,2.00
2022-12-09T21:29:29.903Z,2.00
2022-12-09T21:31:59.665Z,2.10
2022-12-09T21:34:29.087Z,2.10
2022-12-09T21:36:57.097Z,2.00
2022-12-09T21:39:25.473Z,2.10
2022-12-09T21:41:53.543Z,2.00
2022-12-09T21:44:22.308Z,2.00
2022-12-09T21:46:50.289Z,2.00
2022-12-09T21:49:18.864Z,2.00
2022-12-09T21:51:48.324Z,2.00
2022-12-09T21:54:16.371Z,2.10
2022-12-09T21:56:44.719Z,2.10
2022-12-09T21:59:12.808Z,2.10
2022-12-09T22:01:42.225Z,2.10
2022-12-09T22:04:13.018Z,2.10
2022-12-09T22:06:42.154Z,2.10
2022-12-09T22:09:13.310Z,2.10
2022-12-09T22:11:43.329Z,2.10
2022-12-09T22:14:12.005Z,2.10
2022-12-09T22:16:43.563Z,2.10
2022-12-09T22:19:15.337Z,2.10
2022-12-09T22:21:44.068Z,2.10
2022-12-09T22:24:14.561Z,2.10
2022-12-09T22:26:45.475Z,2.10
2022-12-09T22:29:15.530Z,2.10
2022-12-09T22:31:44.355Z,2.10
2022-12-09T22:34:14.578Z,2.10
2022-12-09T22:36:42.963Z,2.10
2022-12-09T22:39:16.055Z,2.10
2022-12-09T22:41:45.910Z,2.10
2022-12-09T22:44:16.144Z,2.10
2022-12-09T22:46:44.553Z,2.10
2022-12-09T22:49:14.180Z,2.10
2022-12-09T22:51:43.235Z,2.10
2022-12-09T22:54:11.902Z,2.10
2022-12-09T22:56:43.039Z,2.10
2022-12-09T22:59:12.046Z,2.10
2022-12-09T23:01:40.326Z,2.10
2022-12-09T23:04:09.563Z,2.10
2022-12-09T23:06:39.275Z,2.10
2022-12-09T23:09:08.519Z,2.10
2022-12-09T23:11:37.331Z,2.10
2022-12-09T23:14:06.759Z,2.10
2022-12-09T23:16:35.034Z,2.10
2022-12-09T23:19:03.649Z,2.10
2022-12-09T23:21:33.842Z,2.10
2022-12-09T23:24:04.399Z,2.10
2022-12-09T23:26:35.951Z,2.10
2022-12-09T23:29:07.842Z,2.10
2022-12-09T23:31:38.030Z,2.00
2022-12-09T23:34:07.859Z,2.00
2022-12-09T23:36:38.258Z,2.10
2022-12-09T23:39:09.852Z,2.10
2022-12-09T23:41:38.775Z,2.00
2022-12-09T23:44:11.299Z,2.00
2022-12-09T23:46:40.064Z,2.00
2022-12-09T23:49:08.777Z,2.00
2022-12-09T23:51:39.980Z,2.00
2022-12-09T23:54:09.443Z,2.00
2022-12-09T23:56:40.593Z,2.00
2022-12-09T23:59:15.940Z,2.00
